ELY082 VTBS-LLBG
Flight info
| Callsign | ELY082 |
|---|---|
| Flight time | N/A |
| Altitude | 34000 |
| Route | PASTO1F PASTO L301 DWI P762 PPB P761 IDASO/N0505F360 P761 MMV/N0521F280 L875 VUTAS/N0499F370 UT383 UNRED/N0497F380 UT383 HARGA/N0492F390 UW885 ARSHI/N0496F380 UW885 DWA DCT XADOX DCT SETIT UR780 ASM/N0493F390 G650 RASKA/N0496F380 T513 EGMEG/N0493F390 T513 JDW/N0491F400 L677 WEJ M449 MUNRA DCT QAA DCT OSAMA N134 SALAM |
| Aircraft | B789/H-SDE1E2E3FGHIJ2J3J4J5M1RWXY/LB1D1 |
Departure
| Time | 2026-05-07 22:11 |
|---|---|
| Airport | Suvarnabhumi Airport (VTBS) |
Arrival
| Time | N/A |
|---|---|
| Airport | Ben Gurion International Airport (LLBG) |
| Time | Latitude | Longitude | Altitude | Speed | Heading |
|---|---|---|---|---|---|
| 2026-05-07 21:38 | 13.68888 | 100.74670 | 21 ft | 0 kts | 284° |
| 2026-05-07 21:59 | 13.68886 | 100.74679 | 23 ft | 4 kts | 282° |
| 2026-05-07 21:59 | 13.68882 | 100.74706 | 20 ft | 5 kts | 269° |
| 2026-05-07 21:59 | 13.68885 | 100.74733 | 21 ft | 5 kts | 245° |
| 2026-05-07 22:00 | 13.68900 | 100.74752 | 19 ft | 4 kts | 196° |
| 2026-05-07 22:00 | 13.68903 | 100.74753 | 19 ft | 5 kts | 194° |
| 2026-05-07 22:04 | 13.68900 | 100.74752 | 19 ft | 0 kts | 194° |
| 2026-05-07 22:04 | 13.68836 | 100.74735 | 19 ft | 17 kts | 194° |
| 2026-05-07 22:04 | 13.68715 | 100.74677 | 21 ft | 15 kts | 243° |
| 2026-05-07 22:05 | 13.68724 | 100.74581 | 19 ft | 13 kts | 284° |
| 2026-05-07 22:05 | 13.68746 | 100.74492 | 19 ft | 13 kts | 284° |
| 2026-05-07 22:05 | 13.68767 | 100.74406 | 19 ft | 14 kts | 284° |
| 2026-05-07 22:05 | 13.68796 | 100.74294 | 21 ft | 18 kts | 286° |
| 2026-05-07 22:06 | 13.68827 | 100.74173 | 20 ft | 18 kts | 287° |
| 2026-05-07 22:06 | 13.68913 | 100.74126 | 21 ft | 14 kts | 14° |
| 2026-05-07 22:06 | 13.69010 | 100.74151 | 19 ft | 15 kts | 14° |
| 2026-05-07 22:06 | 13.69112 | 100.74179 | 19 ft | 16 kts | 15° |
| 2026-05-07 22:07 | 13.69225 | 100.74210 | 19 ft | 18 kts | 15° |
| 2026-05-07 22:07 | 13.69362 | 100.74246 | 19 ft | 22 kts | 15° |
| 2026-05-07 22:07 | 13.69524 | 100.74289 | 19 ft | 26 kts | 13° |
| 2026-05-07 22:07 | 13.69693 | 100.74333 | 21 ft | 24 kts | 14° |
| 2026-05-07 22:08 | 13.69851 | 100.74375 | 19 ft | 23 kts | 14° |
| 2026-05-07 22:08 | 13.69998 | 100.74414 | 19 ft | 21 kts | 15° |
| 2026-05-07 22:08 | 13.70131 | 100.74448 | 23 ft | 16 kts | 13° |
| 2026-05-07 22:08 | 13.70207 | 100.74440 | 21 ft | 9 kts | 322° |
| 2026-05-07 22:09 | 13.70235 | 100.74387 | 21 ft | 8 kts | 290° |
| 2026-05-07 22:09 | 13.70246 | 100.74334 | 23 ft | 7 kts | 274° |
| 2026-05-07 22:09 | 13.70230 | 100.74289 | 25 ft | 6 kts | 230° |
| 2026-05-07 22:09 | 13.70195 | 100.74273 | 25 ft | 6 kts | 195° |
| 2026-05-07 22:10 | 13.70173 | 100.74267 | 23 ft | 0 kts | 195° |
| 2026-05-07 22:10 | 13.70172 | 100.74267 | 21 ft | 1 kts | 195° |
| 2026-05-07 22:10 | 13.70059 | 100.74236 | 21 ft | 41 kts | 194° |
| 2026-05-07 22:10 | 13.69576 | 100.74111 | 17 ft | 101 kts | 194° |
| 2026-05-07 22:11 | 13.68713 | 100.73884 | 21 ft | 153 kts | 194° |
| 2026-05-07 22:11 | 13.67551 | 100.73589 | 41 ft | 192 kts | 193° |
| 2026-05-07 22:11 | 13.66281 | 100.73265 | 616 ft | 186 kts | 192° |
| 2026-05-07 22:11 | 13.64980 | 100.72917 | 1002 ft | 203 kts | 194° |
| 2026-05-07 22:12 | 13.63593 | 100.72531 | 1422 ft | 208 kts | 194° |
| 2026-05-07 22:12 | 13.62172 | 100.72153 | 1863 ft | 214 kts | 194° |
| 2026-05-07 22:12 | 13.60724 | 100.71779 | 2299 ft | 215 kts | 194° |
| 2026-05-07 22:12 | 13.59201 | 100.71393 | 2545 ft | 239 kts | 194° |
| 2026-05-07 22:13 | 13.57524 | 100.70969 | 3021 ft | 258 kts | 194° |
| 2026-05-07 22:13 | 13.55742 | 100.70514 | 3697 ft | 265 kts | 194° |
| 2026-05-07 22:13 | 13.53951 | 100.70027 | 4524 ft | 269 kts | 199° |
| 2026-05-07 22:13 | 13.52488 | 100.68848 | 5261 ft | 274 kts | 237° |
| 2026-05-07 22:14 | 13.51956 | 100.66976 | 5995 ft | 280 kts | 272° |
| 2026-05-07 22:14 | 13.52357 | 100.65007 | 6686 ft | 284 kts | 289° |
| 2026-05-07 22:14 | 13.53123 | 100.63108 | 7395 ft | 290 kts | 296° |
| 2026-05-07 22:14 | 13.53990 | 100.61231 | 8229 ft | 293 kts | 295° |
| 2026-05-07 22:15 | 13.54820 | 100.59293 | 9023 ft | 298 kts | 293° |
| 2026-05-07 22:15 | 13.55623 | 100.57321 | 9810 ft | 302 kts | 293° |
| 2026-05-07 22:15 | 13.56456 | 100.55303 | 10343 ft | 316 kts | 293° |
| 2026-05-07 22:15 | 13.57356 | 100.53165 | 10463 ft | 343 kts | 294° |
| 2026-05-07 22:16 | 13.58340 | 100.50826 | 10580 ft | 370 kts | 293° |
| 2026-05-07 22:16 | 13.59382 | 100.48330 | 10851 ft | 386 kts | 293° |
| 2026-05-07 22:16 | 13.60441 | 100.45786 | 11669 ft | 387 kts | 293° |
| 2026-05-07 22:16 | 13.61513 | 100.43221 | 12351 ft | 392 kts | 293° |
| 2026-05-07 22:17 | 13.62595 | 100.40634 | 13063 ft | 396 kts | 293° |
| 2026-05-07 22:17 | 13.63686 | 100.38020 | 13759 ft | 400 kts | 293° |
| 2026-05-07 22:17 | 13.64787 | 100.35380 | 14357 ft | 405 kts | 292° |
| 2026-05-07 22:17 | 13.65904 | 100.32701 | 14956 ft | 409 kts | 293° |
| 2026-05-07 22:18 | 13.67033 | 100.29994 | 15550 ft | 414 kts | 293° |
| 2026-05-07 22:18 | 13.69328 | 100.24488 | 16704 ft | 423 kts | 293° |
| 2026-05-07 22:18 | 13.70493 | 100.21691 | 17261 ft | 427 kts | 293° |
| 2026-05-07 22:19 | 13.71652 | 100.18905 | 17800 ft | 432 kts | 293° |
| 2026-05-07 22:19 | 13.72839 | 100.16056 | 18308 ft | 436 kts | 293° |
| 2026-05-07 22:19 | 13.74039 | 100.13172 | 18774 ft | 439 kts | 293° |
| 2026-05-07 22:19 | 13.75243 | 100.10276 | 19238 ft | 442 kts | 293° |
| 2026-05-07 22:20 | 13.76457 | 100.07356 | 19693 ft | 445 kts | 293° |
| 2026-05-07 22:20 | 13.77679 | 100.04415 | 20149 ft | 449 kts | 293° |
| 2026-05-07 22:20 | 13.78910 | 100.01452 | 20617 ft | 452 kts | 293° |
| 2026-05-07 22:20 | 13.80150 | 99.98467 | 21048 ft | 455 kts | 293° |
| 2026-05-07 22:21 | 13.81398 | 99.95459 | 21490 ft | 458 kts | 293° |
| 2026-05-07 22:21 | 13.82654 | 99.92433 | 21913 ft | 461 kts | 293° |
| 2026-05-07 22:21 | 13.83915 | 99.89391 | 22341 ft | 464 kts | 293° |
| 2026-05-07 22:21 | 13.85187 | 99.86323 | 22747 ft | 468 kts | 293° |
| 2026-05-07 22:22 | 13.86467 | 99.83234 | 23144 ft | 471 kts | 293° |
| 2026-05-07 22:22 | 13.87756 | 99.80123 | 23501 ft | 474 kts | 293° |
| 2026-05-07 22:22 | 13.89049 | 99.76999 | 23844 ft | 476 kts | 293° |
| 2026-05-07 22:22 | 13.90349 | 99.73858 | 24182 ft | 477 kts | 293° |
| 2026-05-07 22:23 | 13.91653 | 99.70706 | 24527 ft | 479 kts | 293° |
| 2026-05-07 22:23 | 13.92961 | 99.67543 | 24868 ft | 481 kts | 293° |
| 2026-05-07 22:23 | 13.94274 | 99.64368 | 25193 ft | 483 kts | 293° |
| 2026-05-07 22:23 | 13.95589 | 99.61184 | 25535 ft | 485 kts | 293° |
| 2026-05-07 22:24 | 13.96911 | 99.57984 | 25841 ft | 486 kts | 293° |
| 2026-05-07 22:24 | 13.98237 | 99.54771 | 26169 ft | 488 kts | 293° |
| 2026-05-07 22:24 | 13.99536 | 99.51536 | 26481 ft | 490 kts | 289° |
| 2026-05-07 22:24 | 14.00320 | 99.48164 | 26785 ft | 492 kts | 277° |
| 2026-05-07 22:25 | 14.00672 | 99.44656 | 27049 ft | 495 kts | 276° |
| 2026-05-07 22:25 | 14.00998 | 99.41119 | 27321 ft | 497 kts | 276° |
| 2026-05-07 22:25 | 14.01327 | 99.37572 | 27645 ft | 499 kts | 276° |
| 2026-05-07 22:25 | 14.01674 | 99.33999 | 27940 ft | 501 kts | 276° |
| 2026-05-07 22:26 | 14.02022 | 99.30430 | 28232 ft | 503 kts | 276° |
| 2026-05-07 22:26 | 14.02361 | 99.26838 | 28523 ft | 505 kts | 276° |
| 2026-05-07 22:26 | 14.02699 | 99.23234 | 28809 ft | 507 kts | 276° |
| 2026-05-07 22:26 | 14.03044 | 99.19611 | 29089 ft | 509 kts | 276° |
| 2026-05-07 22:27 | 14.03390 | 99.15987 | 29373 ft | 511 kts | 276° |
| 2026-05-07 22:27 | 14.03736 | 99.12335 | 29650 ft | 512 kts | 276° |
| 2026-05-07 22:27 | 14.04080 | 99.08672 | 29917 ft | 514 kts | 276° |
| 2026-05-07 22:27 | 14.04427 | 99.04991 | 30061 ft | 519 kts | 276° |
| 2026-05-07 22:28 | 14.04777 | 99.01290 | 30295 ft | 520 kts | 277° |
| 2026-05-07 22:28 | 14.05124 | 98.97585 | 30586 ft | 520 kts | 276° |
| 2026-05-07 22:28 | 14.05349 | 98.93855 | 30787 ft | 522 kts | 275° |
| 2026-05-07 22:28 | 14.05604 | 98.90173 | 31023 ft | 523 kts | 276° |
| 2026-05-07 22:29 | 14.05881 | 98.86431 | 31220 ft | 524 kts | 275° |
| 2026-05-07 22:29 | 14.06121 | 98.82680 | 31453 ft | 526 kts | 275° |
| 2026-05-07 22:29 | 14.06345 | 98.78918 | 31797 ft | 524 kts | 275° |
| 2026-05-07 22:29 | 14.06586 | 98.75172 | 32143 ft | 523 kts | 275° |
| 2026-05-07 22:30 | 14.06839 | 98.71439 | 32477 ft | 522 kts | 275° |
| 2026-05-07 22:30 | 14.07082 | 98.67714 | 32817 ft | 521 kts | 274° |
| 2026-05-07 22:30 | 14.07314 | 98.64000 | 33145 ft | 520 kts | 274° |
| 2026-05-07 22:30 | 14.07549 | 98.60282 | 33476 ft | 519 kts | 274° |
| 2026-05-07 22:31 | 14.07790 | 98.56578 | 33808 ft | 518 kts | 274° |
| 2026-05-07 22:31 | 14.08265 | 98.49133 | 33864 ft | 521 kts | 274° |
| 2026-05-07 22:32 | 14.08734 | 98.41722 | 33865 ft | 516 kts | 274° |
| 2026-05-07 22:32 | 14.09122 | 98.35593 | 33867 ft | 516 kts | 274° |
| 2026-05-07 22:33 | 14.09586 | 98.28202 | 33857 ft | 519 kts | 274° |
| 2026-05-07 22:33 | 14.09478 | 98.20792 | 33887 ft | 518 kts | 258° |
| 2026-05-07 22:33 | 14.08492 | 98.17229 | 33877 ft | 519 kts | 247° |
| 2026-05-07 22:34 | 14.07033 | 98.13829 | 33865 ft | 520 kts | 245° |
| 2026-05-07 22:34 | 14.04056 | 98.07113 | 33859 ft | 517 kts | 245° |
| 2026-05-07 22:35 | 14.01076 | 98.00380 | 33855 ft | 516 kts | 245° |
| 2026-05-07 22:35 | 13.98088 | 97.93634 | 33851 ft | 518 kts | 245° |
| 2026-05-07 22:36 | 13.95084 | 97.86863 | 33852 ft | 520 kts | 245° |
| 2026-05-07 22:36 | 13.92076 | 97.80084 | 33852 ft | 520 kts | 245° |
| 2026-05-07 22:37 | 13.89067 | 97.73313 | 33855 ft | 520 kts | 245° |
| 2026-05-07 22:37 | 13.86060 | 97.66548 | 33856 ft | 520 kts | 245° |
| 2026-05-07 22:38 | 13.83069 | 97.59830 | 33855 ft | 519 kts | 245° |
| 2026-05-07 22:38 | 13.80060 | 97.53074 | 33844 ft | 519 kts | 245° |
| 2026-05-07 22:39 | 13.77048 | 97.46318 | 33841 ft | 518 kts | 245° |
| 2026-05-07 22:39 | 13.74044 | 97.39586 | 33838 ft | 518 kts | 245° |
| 2026-05-07 22:40 | 13.71021 | 97.32817 | 33842 ft | 522 kts | 245° |
| 2026-05-07 22:40 | 13.67988 | 97.26030 | 33844 ft | 523 kts | 245° |
| 2026-05-07 22:41 | 13.64944 | 97.19227 | 33850 ft | 523 kts | 245° |
| 2026-05-07 22:41 | 13.61905 | 97.12438 | 33850 ft | 523 kts | 245° |
| 2026-05-07 22:42 | 13.58882 | 97.05693 | 33851 ft | 523 kts | 245° |
| 2026-05-07 22:42 | 13.55839 | 96.98910 | 33851 ft | 523 kts | 245° |
| 2026-05-07 22:43 | 13.52789 | 96.92115 | 33851 ft | 523 kts | 245° |
| 2026-05-07 22:43 | 13.49736 | 96.85320 | 33850 ft | 523 kts | 245° |
| 2026-05-07 22:44 | 13.46687 | 96.78540 | 33847 ft | 522 kts | 244° |
| 2026-05-07 22:44 | 13.43645 | 96.71781 | 33845 ft | 521 kts | 244° |
| 2026-05-07 22:45 | 13.40599 | 96.65018 | 33845 ft | 520 kts | 244° |
| 2026-05-07 22:45 | 13.37576 | 96.58313 | 33841 ft | 520 kts | 244° |
| 2026-05-07 22:46 | 13.34539 | 96.51582 | 33834 ft | 520 kts | 244° |
| 2026-05-07 22:46 | 13.31496 | 96.44843 | 33836 ft | 520 kts | 244° |
| 2026-05-07 22:47 | 13.28454 | 96.38113 | 33837 ft | 518 kts | 244° |
| 2026-05-07 22:47 | 13.25418 | 96.31400 | 33838 ft | 519 kts | 244° |
| 2026-05-07 22:48 | 13.22376 | 96.24682 | 33838 ft | 519 kts | 244° |
| 2026-05-07 22:48 | 13.19330 | 96.17958 | 33839 ft | 519 kts | 244° |
| 2026-05-07 22:49 | 13.16283 | 96.11239 | 33839 ft | 519 kts | 244° |
| 2026-05-07 22:49 | 13.13260 | 96.04576 | 33846 ft | 515 kts | 244° |
| 2026-05-07 22:50 | 13.10242 | 95.97933 | 33842 ft | 513 kts | 244° |
| 2026-05-07 22:50 | 13.07219 | 95.91282 | 33843 ft | 515 kts | 244° |
| 2026-05-07 22:51 | 13.04192 | 95.84629 | 33847 ft | 513 kts | 244° |
| 2026-05-07 22:51 | 13.01182 | 95.78017 | 33842 ft | 512 kts | 244° |
| 2026-05-07 22:52 | 12.98166 | 95.71400 | 33843 ft | 511 kts | 244° |
| 2026-05-07 22:52 | 12.95167 | 95.64821 | 33843 ft | 513 kts | 244° |
| 2026-05-07 22:53 | 12.92135 | 95.58178 | 33848 ft | 515 kts | 244° |
| 2026-05-07 22:53 | 12.89098 | 95.51529 | 33846 ft | 514 kts | 244° |
| 2026-05-07 22:54 | 12.86076 | 95.44899 | 33850 ft | 513 kts | 245° |
| 2026-05-07 22:54 | 12.83121 | 95.38242 | 33845 ft | 512 kts | 245° |
| 2026-05-07 22:55 | 12.80140 | 95.31626 | 33837 ft | 511 kts | 245° |
| 2026-05-07 22:55 | 12.77174 | 95.24999 | 33835 ft | 511 kts | 245° |
| 2026-05-07 22:56 | 12.74206 | 95.18396 | 33832 ft | 510 kts | 245° |
| 2026-05-07 22:56 | 12.71240 | 95.11792 | 33837 ft | 510 kts | 244° |
| 2026-05-07 22:57 | 12.68276 | 95.05203 | 33839 ft | 509 kts | 244° |
| 2026-05-07 22:57 | 12.65312 | 94.98617 | 33842 ft | 509 kts | 244° |
| 2026-05-07 22:58 | 12.62342 | 94.92026 | 33842 ft | 510 kts | 244° |
| 2026-05-07 22:58 | 12.59363 | 94.85417 | 33846 ft | 511 kts | 244° |
| 2026-05-07 22:59 | 12.56381 | 94.78807 | 33846 ft | 512 kts | 244° |
| 2026-05-07 22:59 | 12.53394 | 94.72192 | 33844 ft | 512 kts | 244° |
| 2026-05-07 23:00 | 12.50427 | 94.65623 | 33841 ft | 512 kts | 244° |
| 2026-05-07 23:00 | 12.47437 | 94.59012 | 33839 ft | 511 kts | 244° |
| 2026-05-07 23:01 | 12.44450 | 94.52410 | 33846 ft | 510 kts | 243° |
| 2026-05-07 23:01 | 12.41468 | 94.45826 | 33842 ft | 510 kts | 243° |
| 2026-05-07 23:02 | 12.38487 | 94.39242 | 33836 ft | 509 kts | 244° |
| 2026-05-07 23:02 | 12.35543 | 94.32660 | 33832 ft | 512 kts | 244° |
| 2026-05-07 23:03 | 12.32542 | 94.25992 | 33844 ft | 516 kts | 244° |
| 2026-05-07 23:03 | 12.29551 | 94.19333 | 33843 ft | 515 kts | 244° |
| 2026-05-07 23:04 | 12.26556 | 94.12681 | 33842 ft | 513 kts | 244° |
| 2026-05-07 23:04 | 12.23599 | 94.06113 | 33836 ft | 512 kts | 244° |
| 2026-05-07 23:05 | 12.20630 | 93.99496 | 33835 ft | 513 kts | 244° |
| 2026-05-07 23:05 | 12.17700 | 93.92841 | 33834 ft | 513 kts | 244° |
| 2026-05-07 23:06 | 12.14737 | 93.86194 | 33837 ft | 514 kts | 244° |
| 2026-05-07 23:06 | 12.11795 | 93.79558 | 33834 ft | 514 kts | 245° |
| 2026-05-07 23:07 | 12.08836 | 93.72907 | 33836 ft | 513 kts | 245° |
| 2026-05-07 23:07 | 12.05886 | 93.66273 | 33832 ft | 511 kts | 245° |
| 2026-05-07 23:08 | 12.02945 | 93.59668 | 33827 ft | 511 kts | 245° |
| 2026-05-07 23:08 | 11.99994 | 93.53044 | 33827 ft | 514 kts | 244° |
| 2026-05-07 23:09 | 11.97015 | 93.46363 | 33832 ft | 515 kts | 244° |
| 2026-05-07 23:09 | 11.94056 | 93.39733 | 33836 ft | 516 kts | 244° |
| 2026-05-07 23:10 | 11.91076 | 93.33058 | 33838 ft | 516 kts | 244° |
| 2026-05-07 23:10 | 11.88097 | 93.26392 | 33839 ft | 515 kts | 244° |
| 2026-05-07 23:11 | 11.85117 | 93.19729 | 33838 ft | 515 kts | 244° |
| 2026-05-07 23:11 | 11.82142 | 93.13084 | 33837 ft | 515 kts | 244° |
| 2026-05-07 23:12 | 11.79158 | 93.06421 | 33836 ft | 515 kts | 244° |
| 2026-05-07 23:12 | 11.76184 | 92.99784 | 33839 ft | 514 kts | 244° |
| 2026-05-07 23:13 | 11.73227 | 92.93191 | 33833 ft | 512 kts | 244° |
| 2026-05-07 23:13 | 11.70264 | 92.86590 | 33830 ft | 512 kts | 244° |
| 2026-05-07 23:14 | 11.67296 | 92.79980 | 33832 ft | 513 kts | 245° |
| 2026-05-07 23:14 | 11.66118 | 92.76538 | 33866 ft | 514 kts | 256° |
| 2026-05-07 23:14 | 11.65600 | 92.72927 | 33863 ft | 517 kts | 267° |
| 2026-05-07 23:14 | 11.65750 | 92.69256 | 33864 ft | 518 kts | 278° |
| 2026-05-07 23:15 | 11.66259 | 92.65607 | 33843 ft | 519 kts | 277° |
| 2026-05-07 23:15 | 11.67353 | 92.58379 | 33840 ft | 518 kts | 278° |
| 2026-05-07 23:16 | 11.68407 | 92.51127 | 33842 ft | 516 kts | 277° |
| 2026-05-07 23:16 | 11.69476 | 92.43890 | 33837 ft | 516 kts | 278° |
| 2026-05-07 23:17 | 11.70538 | 92.36641 | 33835 ft | 518 kts | 277° |
| 2026-05-07 23:17 | 11.71604 | 92.29360 | 33838 ft | 519 kts | 277° |
| 2026-05-07 23:18 | 11.72673 | 92.22055 | 33842 ft | 522 kts | 278° |
| 2026-05-07 23:18 | 11.73558 | 92.15981 | 33839 ft | 521 kts | 278° |
| 2026-05-07 23:19 | 11.74623 | 92.08676 | 33839 ft | 520 kts | 278° |
| 2026-05-07 23:19 | 11.75684 | 92.01373 | 33837 ft | 519 kts | 278° |
| 2026-05-07 23:20 | 11.76744 | 91.94072 | 33834 ft | 519 kts | 278° |
| 2026-05-07 23:20 | 11.77800 | 91.86786 | 33833 ft | 517 kts | 278° |
| 2026-05-07 23:21 | 11.78852 | 91.79515 | 33829 ft | 517 kts | 278° |
| 2026-05-07 23:21 | 11.79894 | 91.72295 | 33830 ft | 518 kts | 278° |
| 2026-05-07 23:22 | 11.80942 | 91.65022 | 33833 ft | 519 kts | 278° |
| 2026-05-07 23:22 | 11.81991 | 91.57723 | 33837 ft | 519 kts | 278° |
| 2026-05-07 23:23 | 11.83039 | 91.50424 | 33842 ft | 519 kts | 278° |
| 2026-05-07 23:23 | 11.84084 | 91.43132 | 33842 ft | 517 kts | 278° |
| 2026-05-07 23:24 | 11.85123 | 91.35871 | 33839 ft | 517 kts | 277° |
| 2026-05-07 23:24 | 11.86111 | 91.28594 | 33839 ft | 516 kts | 274° |
| 2026-05-07 23:25 | 11.86812 | 91.21344 | 33837 ft | 517 kts | 275° |
| 2026-05-07 23:25 | 11.87528 | 91.14031 | 33840 ft | 517 kts | 275° |
| 2026-05-07 23:26 | 11.88230 | 91.06680 | 33841 ft | 522 kts | 275° |
| 2026-05-07 23:26 | 11.88948 | 90.99311 | 33840 ft | 522 kts | 275° |
| 2026-05-07 23:27 | 11.90008 | 90.88246 | 33839 ft | 521 kts | 275° |
| 2026-05-07 23:27 | 11.90712 | 90.80883 | 33836 ft | 520 kts | 275° |
| 2026-05-07 23:28 | 11.91415 | 90.73532 | 33843 ft | 519 kts | 275° |
| 2026-05-07 23:28 | 11.92110 | 90.66230 | 33835 ft | 515 kts | 275° |
| 2026-05-07 23:29 | 11.92798 | 90.58975 | 33838 ft | 517 kts | 275° |
| 2026-05-07 23:29 | 11.93492 | 90.51652 | 33840 ft | 517 kts | 275° |
| 2026-05-07 23:30 | 11.94177 | 90.44396 | 33838 ft | 517 kts | 275° |
| 2026-05-07 23:30 | 11.94864 | 90.37096 | 33833 ft | 516 kts | 275° |
| 2026-05-07 23:31 | 11.95555 | 90.29738 | 33832 ft | 522 kts | 275° |
| 2026-05-07 23:31 | 11.96245 | 90.22367 | 33834 ft | 521 kts | 275° |
| 2026-05-07 23:32 | 11.96932 | 90.15009 | 33834 ft | 521 kts | 275° |
| 2026-05-07 23:32 | 11.97618 | 90.07643 | 33836 ft | 521 kts | 275° |
| 2026-05-07 23:33 | 11.98302 | 90.00270 | 33838 ft | 521 kts | 275° |
| 2026-05-07 23:33 | 11.98978 | 89.92972 | 33837 ft | 517 kts | 274° |
| 2026-05-07 23:34 | 11.99652 | 89.85671 | 33834 ft | 516 kts | 275° |
| 2026-05-07 23:34 | 12.00325 | 89.78366 | 33831 ft | 517 kts | 274° |
| 2026-05-07 23:35 | 12.00995 | 89.71053 | 33834 ft | 517 kts | 274° |
| 2026-05-07 23:35 | 12.01665 | 89.63736 | 33834 ft | 518 kts | 274° |
| 2026-05-07 23:36 | 12.02334 | 89.56405 | 33837 ft | 518 kts | 274° |
| 2026-05-07 23:36 | 12.03001 | 89.49074 | 33836 ft | 518 kts | 274° |
| 2026-05-07 23:37 | 12.03661 | 89.41796 | 33840 ft | 517 kts | 274° |
| 2026-05-07 23:37 | 12.04324 | 89.34469 | 33836 ft | 519 kts | 274° |
| 2026-05-07 23:38 | 12.04986 | 89.27128 | 33837 ft | 518 kts | 274° |
| 2026-05-07 23:38 | 12.05647 | 89.19785 | 33838 ft | 517 kts | 274° |
| 2026-05-07 23:39 | 12.06301 | 89.12485 | 33839 ft | 515 kts | 274° |
| 2026-05-07 23:39 | 12.06953 | 89.05193 | 33837 ft | 516 kts | 274° |
| 2026-05-07 23:40 | 12.07604 | 88.97889 | 33837 ft | 515 kts | 274° |
| 2026-05-07 23:40 | 12.08252 | 88.90591 | 33836 ft | 516 kts | 274° |
| 2026-05-07 23:41 | 12.08895 | 88.83343 | 33835 ft | 515 kts | 274° |
| 2026-05-07 23:41 | 12.09539 | 88.76044 | 33835 ft | 516 kts | 274° |
| 2026-05-07 23:42 | 12.10191 | 88.68718 | 33836 ft | 517 kts | 276° |
| 2026-05-07 23:42 | 12.11065 | 88.61412 | 33844 ft | 518 kts | 275° |
| 2026-05-07 23:43 | 12.11902 | 88.54131 | 33845 ft | 518 kts | 276° |
| 2026-05-07 23:43 | 12.12780 | 88.46825 | 33847 ft | 517 kts | 275° |
| 2026-05-07 23:44 | 12.13621 | 88.39536 | 33842 ft | 516 kts | 276° |
| 2026-05-07 23:44 | 12.14483 | 88.32261 | 33837 ft | 515 kts | 276° |
| 2026-05-07 23:45 | 12.15324 | 88.25005 | 33835 ft | 515 kts | 276° |
| 2026-05-07 23:45 | 12.16176 | 88.17725 | 33836 ft | 516 kts | 276° |
| 2026-05-07 23:46 | 12.17024 | 88.10417 | 33838 ft | 517 kts | 276° |
| 2026-05-07 23:46 | 12.17869 | 88.03144 | 33839 ft | 519 kts | 276° |
| 2026-05-07 23:47 | 12.18716 | 87.95818 | 33842 ft | 519 kts | 276° |
| 2026-05-07 23:47 | 12.19563 | 87.88486 | 33842 ft | 519 kts | 276° |
| 2026-05-07 23:48 | 12.20406 | 87.81166 | 33842 ft | 519 kts | 276° |
| 2026-05-07 23:48 | 12.21248 | 87.73845 | 33841 ft | 518 kts | 276° |
| 2026-05-07 23:49 | 12.22088 | 87.66520 | 33848 ft | 516 kts | 276° |
| 2026-05-07 23:49 | 12.22920 | 87.59238 | 33845 ft | 516 kts | 276° |
| 2026-05-07 23:50 | 12.23746 | 87.52003 | 33843 ft | 515 kts | 276° |
| 2026-05-07 23:50 | 12.24576 | 87.44713 | 33844 ft | 516 kts | 276° |
| 2026-05-07 23:51 | 12.25404 | 87.37426 | 33845 ft | 516 kts | 276° |
| 2026-05-07 23:51 | 12.26231 | 87.30129 | 33846 ft | 516 kts | 275° |
| 2026-05-07 23:52 | 12.27052 | 87.22862 | 33844 ft | 514 kts | 275° |
| 2026-05-07 23:52 | 12.27871 | 87.15600 | 33843 ft | 515 kts | 275° |
| 2026-05-07 23:53 | 12.28690 | 87.08321 | 33846 ft | 516 kts | 275° |
| 2026-05-07 23:53 | 12.29509 | 87.01021 | 33845 ft | 517 kts | 275° |
| 2026-05-07 23:54 | 12.30320 | 86.93773 | 33854 ft | 516 kts | 275° |
| 2026-05-07 23:54 | 12.31136 | 86.86465 | 33844 ft | 518 kts | 275° |
| 2026-05-07 23:55 | 12.31952 | 86.79144 | 33843 ft | 518 kts | 275° |
| 2026-05-07 23:55 | 12.32764 | 86.71833 | 33843 ft | 518 kts | 275° |
| 2026-05-07 23:56 | 12.33576 | 86.64514 | 33842 ft | 517 kts | 275° |
| 2026-05-07 23:56 | 12.34383 | 86.57212 | 33841 ft | 517 kts | 275° |
| 2026-05-07 23:57 | 12.35192 | 86.49882 | 33837 ft | 519 kts | 275° |
| 2026-05-07 23:57 | 12.35999 | 86.42546 | 33840 ft | 519 kts | 275° |
| 2026-05-07 23:58 | 12.36805 | 86.35205 | 33841 ft | 519 kts | 275° |
| 2026-05-07 23:58 | 12.37608 | 86.27875 | 33840 ft | 519 kts | 275° |
| 2026-05-07 23:59 | 12.38410 | 86.20532 | 33846 ft | 518 kts | 275° |
| 2026-05-07 23:59 | 12.39203 | 86.13247 | 33847 ft | 512 kts | 275° |
| 2026-05-08 00:00 | 12.39983 | 86.06064 | 33842 ft | 512 kts | 275° |
| 2026-05-08 00:00 | 12.40768 | 85.98825 | 33839 ft | 512 kts | 275° |
| 2026-05-08 00:01 | 12.41553 | 85.91564 | 33845 ft | 513 kts | 275° |
| 2026-05-08 00:01 | 12.42337 | 85.84303 | 33848 ft | 514 kts | 275° |
| 2026-05-08 00:02 | 12.43118 | 85.77042 | 33850 ft | 513 kts | 275° |
| 2026-05-08 00:02 | 12.43897 | 85.69782 | 33848 ft | 513 kts | 275° |
| 2026-05-08 00:03 | 12.44673 | 85.62527 | 33847 ft | 513 kts | 275° |
| 2026-05-08 00:03 | 12.45447 | 85.55276 | 33843 ft | 512 kts | 275° |
| 2026-05-08 00:04 | 12.46089 | 85.49257 | 33843 ft | 512 kts | 275° |
| 2026-05-08 00:04 | 12.46860 | 85.42001 | 33837 ft | 512 kts | 275° |
| 2026-05-08 00:05 | 12.47631 | 85.34718 | 33841 ft | 517 kts | 275° |
| 2026-05-08 00:05 | 12.48407 | 85.27388 | 33849 ft | 517 kts | 275° |
| 2026-05-08 00:06 | 12.49173 | 85.20119 | 33850 ft | 517 kts | 275° |
| 2026-05-08 00:06 | 12.49942 | 85.12809 | 33849 ft | 517 kts | 275° |
| 2026-05-08 00:07 | 12.50709 | 85.05495 | 33849 ft | 516 kts | 275° |
| 2026-05-08 00:07 | 12.51473 | 84.98189 | 33848 ft | 516 kts | 275° |
| 2026-05-08 00:08 | 12.52235 | 84.90890 | 33845 ft | 516 kts | 275° |
| 2026-05-08 00:08 | 12.52995 | 84.83582 | 33846 ft | 516 kts | 275° |
| 2026-05-08 00:09 | 12.53749 | 84.76315 | 33843 ft | 516 kts | 275° |
| 2026-05-08 00:09 | 12.54505 | 84.69008 | 33841 ft | 516 kts | 275° |
| 2026-05-08 00:10 | 12.55260 | 84.61706 | 33844 ft | 515 kts | 274° |
| 2026-05-08 00:10 | 12.56009 | 84.54426 | 33842 ft | 514 kts | 274° |
| 2026-05-08 00:11 | 12.56757 | 84.47142 | 33838 ft | 513 kts | 274° |
| 2026-05-08 00:11 | 12.57502 | 84.39861 | 33837 ft | 514 kts | 274° |
| 2026-05-08 00:12 | 12.58243 | 84.32614 | 33838 ft | 514 kts | 274° |
| 2026-05-08 00:12 | 12.58985 | 84.25322 | 33848 ft | 514 kts | 274° |
| 2026-05-08 00:13 | 12.59723 | 84.18058 | 33847 ft | 512 kts | 274° |
| 2026-05-08 00:13 | 12.60458 | 84.10800 | 33844 ft | 513 kts | 274° |
| 2026-05-08 00:14 | 12.61194 | 84.03516 | 33841 ft | 513 kts | 274° |
| 2026-05-08 00:14 | 12.61925 | 83.96260 | 33841 ft | 512 kts | 274° |
| 2026-05-08 00:15 | 12.62655 | 83.89001 | 33838 ft | 513 kts | 274° |
| 2026-05-08 00:15 | 12.63388 | 83.81677 | 33845 ft | 520 kts | 274° |
| 2026-05-08 00:16 | 12.64125 | 83.74311 | 33846 ft | 518 kts | 274° |
| 2026-05-08 00:16 | 12.64851 | 83.67022 | 33845 ft | 517 kts | 274° |
| 2026-05-08 00:17 | 12.65578 | 83.59703 | 33837 ft | 516 kts | 274° |
| 2026-05-08 00:17 | 12.66308 | 83.52382 | 33845 ft | 517 kts | 274° |
| 2026-05-08 00:18 | 12.67070 | 83.45087 | 33842 ft | 512 kts | 274° |
| 2026-05-08 00:18 | 12.67804 | 83.37838 | 33839 ft | 513 kts | 274° |
| 2026-05-08 00:19 | 12.68551 | 83.30562 | 33840 ft | 514 kts | 274° |
| 2026-05-08 00:19 | 12.69290 | 83.23289 | 33843 ft | 511 kts | 274° |
| 2026-05-08 00:20 | 12.70024 | 83.16067 | 33838 ft | 510 kts | 274° |
| 2026-05-08 00:20 | 12.70757 | 83.08820 | 33835 ft | 514 kts | 274° |
| 2026-05-08 00:21 | 12.71489 | 83.01581 | 33843 ft | 514 kts | 274° |
| 2026-05-08 00:21 | 12.72223 | 82.94283 | 33843 ft | 514 kts | 274° |
| 2026-05-08 00:22 | 12.72956 | 82.86989 | 33843 ft | 513 kts | 274° |
| 2026-05-08 00:22 | 12.73684 | 82.79722 | 33839 ft | 513 kts | 274° |
| 2026-05-08 00:23 | 12.74404 | 82.72517 | 33835 ft | 510 kts | 274° |
| 2026-05-08 00:23 | 12.75122 | 82.65295 | 33832 ft | 510 kts | 274° |
| 2026-05-08 00:24 | 12.75841 | 82.58065 | 33832 ft | 510 kts | 274° |
| 2026-05-08 00:24 | 12.76558 | 82.50816 | 33832 ft | 510 kts | 274° |
| 2026-05-08 00:25 | 12.77274 | 82.43579 | 33834 ft | 511 kts | 274° |
| 2026-05-08 00:25 | 12.77987 | 82.36334 | 33833 ft | 511 kts | 274° |
| 2026-05-08 00:26 | 12.78700 | 82.29079 | 33834 ft | 512 kts | 274° |
| 2026-05-08 00:26 | 12.79410 | 82.21818 | 33835 ft | 512 kts | 274° |
| 2026-05-08 00:27 | 12.80119 | 82.14569 | 33838 ft | 512 kts | 274° |
| 2026-05-08 00:27 | 12.80820 | 82.07356 | 33835 ft | 512 kts | 274° |
| 2026-05-08 00:28 | 12.81526 | 82.00098 | 33835 ft | 511 kts | 274° |
| 2026-05-08 00:28 | 12.82227 | 81.92851 | 33833 ft | 511 kts | 274° |
| 2026-05-08 00:29 | 12.82926 | 81.85610 | 33830 ft | 510 kts | 274° |
| 2026-05-08 00:29 | 12.83622 | 81.78378 | 33828 ft | 510 kts | 274° |
| 2026-05-08 00:30 | 12.84316 | 81.71151 | 33826 ft | 510 kts | 274° |
| 2026-05-08 00:30 | 12.85008 | 81.63914 | 33825 ft | 511 kts | 274° |
| 2026-05-08 00:31 | 12.85701 | 81.56659 | 33826 ft | 512 kts | 274° |
| 2026-05-08 00:31 | 12.86391 | 81.49395 | 33830 ft | 513 kts | 274° |
| 2026-05-08 00:32 | 12.87084 | 81.42108 | 33836 ft | 513 kts | 274° |
| 2026-05-08 00:32 | 12.87771 | 81.34830 | 33836 ft | 512 kts | 274° |
| 2026-05-08 00:33 | 12.88456 | 81.27568 | 33840 ft | 512 kts | 274° |
| 2026-05-08 00:33 | 12.89135 | 81.20344 | 33842 ft | 507 kts | 274° |
| 2026-05-08 00:34 | 12.89811 | 81.13137 | 33837 ft | 509 kts | 274° |
| 2026-05-08 00:34 | 12.90481 | 81.05956 | 33838 ft | 508 kts | 274° |
| 2026-05-08 00:35 | 12.91155 | 80.98742 | 33838 ft | 508 kts | 274° |
| 2026-05-08 00:35 | 12.91823 | 80.91536 | 33836 ft | 507 kts | 274° |
| 2026-05-08 00:36 | 12.92493 | 80.84308 | 33834 ft | 511 kts | 275° |
| 2026-05-08 00:36 | 12.93164 | 80.77040 | 33839 ft | 512 kts | 275° |
| 2026-05-08 00:37 | 12.93833 | 80.69776 | 33838 ft | 511 kts | 275° |
| 2026-05-08 00:38 | 12.94830 | 80.58889 | 33837 ft | 511 kts | 275° |
| 2026-05-08 00:38 | 12.95493 | 80.51644 | 33835 ft | 511 kts | 275° |
| 2026-05-08 00:39 | 12.96155 | 80.44373 | 33829 ft | 512 kts | 275° |
| 2026-05-08 00:39 | 12.96809 | 80.37175 | 33830 ft | 510 kts | 274° |
| 2026-05-08 00:40 | 12.97465 | 80.29924 | 33827 ft | 509 kts | 275° |
| 2026-05-08 00:40 | 12.98118 | 80.22694 | 33825 ft | 509 kts | 274° |
| 2026-05-08 00:41 | 12.98767 | 80.15463 | 33829 ft | 510 kts | 274° |
| 2026-05-08 00:41 | 12.99454 | 80.08202 | 33830 ft | 513 kts | 275° |
| 2026-05-08 00:42 | 13.00145 | 80.00916 | 33835 ft | 513 kts | 274° |
| 2026-05-08 00:42 | 13.00823 | 79.93679 | 33846 ft | 513 kts | 275° |
| 2026-05-08 00:43 | 13.01510 | 79.86396 | 33861 ft | 513 kts | 274° |
| 2026-05-08 00:43 | 13.02189 | 79.79116 | 33857 ft | 513 kts | 274° |
| 2026-05-08 00:44 | 13.02868 | 79.71843 | 33873 ft | 511 kts | 274° |
| 2026-05-08 00:44 | 13.03542 | 79.64592 | 33866 ft | 510 kts | 274° |
| 2026-05-08 00:45 | 13.04212 | 79.57368 | 33875 ft | 509 kts | 274° |
| 2026-05-08 00:45 | 13.04882 | 79.50118 | 33875 ft | 511 kts | 274° |
| 2026-05-08 00:46 | 13.05551 | 79.42854 | 33880 ft | 512 kts | 274° |
| 2026-05-08 00:46 | 13.06220 | 79.35577 | 33894 ft | 511 kts | 274° |